TimePST,TemperatureF,Dew PointF,Humidity,Sea Level PressureIn,VisibilityMPH,Wind Direction,Wind SpeedMPH,Gust SpeedMPH,PrecipitationIn,Events,Conditions,WindDirDegrees,DateUTC
12:03 AM,32.0,32.0,100,30.10,0.5,NW,4.6,-,N/A,Fog,Light Freezing Fog,310,2012-11-25 08:03:00
12:21 AM,32.0,32.0,100,30.09,0.5,NNW,3.5,-,N/A,Fog,Light Freezing Fog,340,2012-11-25 08:21:00
12:31 AM,32.0,32.0,100,30.09,0.5,Calm,Calm,-,N/A,Fog,Light Freezing Fog,360,2012-11-25 08:31:00
12:36 AM,32.0,32.0,100,30.09,0.5,Calm,Calm,-,N/A,Fog,Light Freezing Fog,0,2012-11-25 08:36:00
12:41 AM,32.0,32.0,100,30.09,0.8,Calm,Calm,-,N/A,,Mist,0,2012-11-25 08:41:00
12:46 AM,32.0,32.0,100,30.09,0.5,Calm,Calm,-,N/A,Fog,Light Freezing Fog,0,2012-11-25 08:46:00
12:51 AM,32.0,32.0,100,30.09,0.5,Calm,Calm,-,N/A,Fog,Light Freezing Fog,0,2012-11-25 08:51:00
12:58 AM,32.0,32.0,100,30.16,0.5,WNW,1.2,-,0.00,Fog,Light Freezing Fog,300,2012-11-25 08:58:00
1:08 AM,32.0,32.0,100,30.09,0.5,West,2.3,-,N/A,Fog,Light Freezing Fog,260,2012-11-25 09:08:00
1:42 AM,32.0,32.0,100,30.10,0.5,WNW,4.6,-,N/A,Fog,Light Freezing Drizzle,290,2012-11-25 09:42:00
1:47 AM,32.0,32.0,100,30.10,0.5,West,4.6,-,N/A,Fog,Light Freezing Drizzle,280,2012-11-25 09:47:00
1:57 AM,32.0,32.0,100,30.10,0.5,West,4.6,-,N/A,Fog-Rain,Light Freezing Rain,280,2012-11-25 09:57:00
1:58 AM,31.6,31.6,100,30.17,0.5,West,4.6,-,0.00,Fog-Rain,Light Freezing Rain,280,2012-11-25 09:58:00
2:33 AM,32.0,32.0,100,30.10,0.5,West,4.6,-,N/A,Fog,Light Freezing Fog,270,2012-11-25 10:33:00
2:38 AM,32.0,32.0,100,30.10,0.8,WNW,5.8,-,N/A,,Mist,290,2012-11-25 10:38:00
2:43 AM,32.0,32.0,100,30.10,0.8,WNW,4.6,-,N/A,,Mist,290,2012-11-25 10:43:00
2:48 AM,32.0,32.0,100,30.10,0.5,West,4.6,-,N/A,Fog,Light Freezing Fog,280,2012-11-25 10:48:00
2:58 AM,32.0,32.0,100,30.18,0.8,WNW,5.8,-,0.00,,Mist,300,2012-11-25 10:58:00
3:03 AM,32.0,32.0,100,30.11,1.0,West,5.8,-,N/A,,Mist,280,2012-11-25 11:03:00
3:08 AM,32.0,32.0,100,30.11,1.5,West,4.6,-,N/A,,Overcast,280,2012-11-25 11:08:00
3:13 AM,32.0,32.0,100,30.10,1.5,WSW,3.5,-,N/A,,Overcast,250,2012-11-25 11:13:00
3:18 AM,32.0,32.0,100,30.11,1.2,West,4.6,-,N/A,,Overcast,260,2012-11-25 11:18:00
3:23 AM,32.0,32.0,100,30.11,1.5,West,3.5,-,N/A,,Overcast,270,2012-11-25 11:23:00
3:28 AM,32.0,32.0,100,30.11,2.0,West,4.6,-,N/A,,Overcast,270,2012-11-25 11:28:00
3:33 AM,32.0,32.0,100,30.11,5.0,West,3.5,-,N/A,,Overcast,270,2012-11-25 11:33:00
3:58 AM,32.0,32.0,100,30.18,10.0,WNW,3.5,-,N/A,,Overcast,290,2012-11-25 11:58:00
4:28 AM,32.0,32.0,100,30.12,10.0,WSW,3.5,-,N/A,,Overcast,250,2012-11-25 12:28:00
4:50 AM,32.0,32.0,100,30.12,10.0,SW,3.5,-,N/A,,Overcast,230,2012-11-25 12:50:00
4:58 AM,32.2,32.2,100,30.19,10.0,SW,4.6,-,0.00,,Overcast,220,2012-11-25 12:58:00
5:03 AM,32.0,32.0,100,30.12,10.0,SW,4.6,-,N/A,,Overcast,220,2012-11-25 13:03:00
5:04 AM,32.0,32.0,100,30.12,10.0,SW,4.6,-,N/A,,Overcast,220,2012-11-25 13:04:00
5:12 AM,32.0,32.0,100,30.13,10.0,SW,4.6,-,N/A,,Overcast,230,2012-11-25 13:12:00
5:17 AM,32.0,32.0,100,30.13,10.0,SW,5.8,-,N/A,,Overcast,230,2012-11-25 13:17:00
5:18 AM,32.0,32.0,100,30.12,10.0,SW,4.6,-,N/A,,Overcast,230,2012-11-25 13:18:00
5:35 AM,32.0,32.0,100,30.13,10.0,West,5.8,-,N/A,,Overcast,260,2012-11-25 13:35:00
5:38 AM,32.0,32.0,100,30.13,10.0,WSW,5.8,-,N/A,,Overcast,250,2012-11-25 13:38:00
5:43 AM,32.0,32.0,100,30.13,10.0,WSW,4.6,-,N/A,,Overcast,250,2012-11-25 13:43:00
5:58 AM,32.2,32.2,100,30.21,10.0,WNW,4.6,-,0.00,,Overcast,290,2012-11-25 13:58:00
6:08 AM,32.0,32.0,100,30.14,10.0,West,3.5,-,N/A,,Overcast,270,2012-11-25 14:08:00
6:23 AM,32.0,32.0,100,30.15,10.0,NW,2.3,-,N/A,,Overcast,320,2012-11-25 14:23:00
6:46 AM,32.0,32.0,100,30.15,10.0,WSW,3.5,-,N/A,,Overcast,250,2012-11-25 14:46:00
6:51 AM,32.0,32.0,100,30.15,10.0,WSW,5.8,-,N/A,,Overcast,240,2012-11-25 14:51:00
6:58 AM,31.8,31.8,100,30.22,10.0,SW,4.6,-,0.00,,Overcast,230,2012-11-25 14:58:00
7:18 AM,32.0,32.0,100,30.16,10.0,WSW,4.6,-,N/A,,Overcast,240,2012-11-25 15:18:00
7:26 AM,32.0,32.0,100,30.16,10.0,SW,4.6,-,N/A,,Overcast,230,2012-11-25 15:26:00
7:58 AM,31.6,31.6,100,30.24,10.0,WSW,3.5,-,0.00,,Overcast,250,2012-11-25 15:58:00
8:08 AM,32.0,32.0,100,30.17,10.0,SSW,2.3,-,N/A,,Overcast,200,2012-11-25 16:08:00
8:33 AM,32.0,32.0,100,30.18,10.0,Calm,Calm,-,N/A,,Overcast,0,2012-11-25 16:33:00
8:51 AM,32.0,32.0,100,30.19,10.0,South,4.6,-,N/A,,Overcast,190,2012-11-25 16:51:00
8:58 AM,31.3,31.3,100,30.27,10.0,SSE,2.3,-,0.00,,Overcast,160,2012-11-25 16:58:00
9:20 AM,32.0,32.0,100,30.20,10.0,South,2.3,-,N/A,,Overcast,190,2012-11-25 17:20:00
9:27 AM,32.0,32.0,100,30.20,10.0,Variable,1.2,-,N/A,,Overcast,0,2012-11-25 17:27:00
9:37 AM,32.0,32.0,100,30.20,10.0,WSW,2.3,-,N/A,,Overcast,250,2012-11-25 17:37:00
9:58 AM,31.8,31.8,100,30.28,10.0,SW,5.8,-,0.00,,Overcast,220,2012-11-25 17:58:00
10:07 AM,32.0,32.0,100,30.21,10.0,West,4.6,-,N/A,,Overcast,270,2012-11-25 18:07:00
10:38 AM,32.0,32.0,100,30.21,10.0,SW,4.6,-,N/A,,Overcast,230,2012-11-25 18:38:00
10:47 AM,32.0,32.0,100,30.21,10.0,West,4.6,-,N/A,,Overcast,260,2012-11-25 18:47:00
10:58 AM,32.2,32.2,100,30.29,10.0,West,4.6,-,0.00,,Overcast,260,2012-11-25 18:58:00
11:03 AM,32.0,32.0,100,30.21,10.0,WSW,4.6,-,N/A,,Overcast,250,2012-11-25 19:03:00
11:08 AM,32.0,32.0,100,30.21,10.0,West,5.8,-,N/A,,Overcast,280,2012-11-25 19:08:00
11:58 AM,32.5,32.5,100,30.30,10.0,Variable,2.3,-,N/A,,Overcast,0,2012-11-25 19:58:00
12:28 PM,32.0,32.0,100,30.22,10.0,Variable,1.2,-,N/A,,Scattered Clouds,0,2012-11-25 20:28:00
12:37 PM,32.0,32.0,100,30.22,10.0,WNW,2.3,-,N/A,,Partly Cloudy,290,2012-11-25 20:37:00
12:57 PM,33.8,33.8,100,30.23,10.0,WNW,1.2,-,N/A,,Clear,300,2012-11-25 20:57:00
12:58 PM,33.6,33.6,100,30.30,10.0,Variable,1.2,-,0.00,,Clear,0,2012-11-25 20:58:00
1:34 PM,33.8,33.8,100,30.22,10.0,Variable,2.3,-,N/A,,Scattered Clouds,0,2012-11-25 21:34:00
1:45 PM,33.8,33.8,100,30.22,10.0,Variable,1.2,-,N/A,,Partly Cloudy,0,2012-11-25 21:45:00
1:58 PM,34.3,34.3,100,30.30,10.0,Calm,Calm,-,0.00,,Partly Cloudy,360,2012-11-25 21:58:00
2:13 PM,35.6,35.6,100,30.23,10.0,West,4.6,-,N/A,,Clear,260,2012-11-25 22:13:00
2:20 PM,35.6,35.6,100,30.23,10.0,SW,2.3,-,N/A,,Clear,220,2012-11-25 22:20:00
2:58 PM,37.0,37.0,100,30.31,10.0,West,2.3,-,0.00,,Clear,260,2012-11-25 22:58:00
3:08 PM,35.6,35.6,100,30.24,10.0,WSW,3.5,-,N/A,,Clear,240,2012-11-25 23:08:00
3:19 PM,35.6,35.6,100,30.25,10.0,WSW,2.3,-,N/A,,Clear,250,2012-11-25 23:19:00
3:58 PM,35.4,35.4,100,30.32,10.0,WSW,3.5,-,0.00,,Clear,250,2012-11-25 23:58:00
4:58 PM,30.6,30.6,100,30.33,10.0,West,3.5,-,N/A,,Clear,270,2012-11-26 00:58:00
5:58 PM,29.5,29.5,100,30.34,10.0,Variable,2.3,-,N/A,,Clear,0,2012-11-26 01:58:00
6:37 PM,28.4,28.4,100,30.27,10.0,WSW,2.3,-,N/A,,Clear,250,2012-11-26 02:37:00
6:55 PM,28.4,28.4,100,30.28,10.0,SSE,4.6,-,N/A,,Clear,150,2012-11-26 02:55:00
6:57 PM,28.4,28.4,100,30.28,10.0,SSE,3.5,-,N/A,,Clear,160,2012-11-26 02:57:00
6:58 PM,28.6,28.6,100,30.37,10.0,SSE,3.5,-,0.00,,Clear,160,2012-11-26 02:58:00
7:06 PM,26.6,26.6,100,30.28,10.0,South,2.3,-,N/A,,Clear,180,2012-11-26 03:06:00
7:58 PM,29.3,29.3,100,30.37,10.0,Variable,2.3,-,0.00,,Clear,0,2012-11-26 03:58:00
8:58 PM,28.6,28.6,100,30.37,10.0,Calm,Calm,-,N/A,,Clear,0,2012-11-26 04:58:00
8:59 PM,28.4,28.4,100,30.28,10.0,Calm,Calm,-,N/A,,Clear,0,2012-11-26 04:59:00
9:19 PM,28.4,28.4,100,30.28,10.0,North,2.3,-,N/A,,Clear,10,2012-11-26 05:19:00
9:35 PM,28.4,28.4,100,30.28,10.0,WNW,2.3,-,N/A,,Clear,300,2012-11-26 05:35:00
9:58 PM,26.2,26.2,100,30.38,10.0,WNW,3.5,-,0.00,,Clear,300,2012-11-26 05:58:00
10:08 PM,26.6,26.6,100,30.30,10.0,NW,2.3,-,N/A,,Clear,310,2012-11-26 06:08:00
10:58 PM,24.8,24.8,100,30.38,10.0,East,2.3,-,0.00,,Clear,90,2012-11-26 06:58:00
11:18 PM,26.6,26.6,100,30.30,8.0,NE,3.5,-,N/A,,Clear,50,2012-11-26 07:18:00
11:28 PM,26.6,26.6,100,30.30,10.0,NE,5.8,-,N/A,,Clear,40,2012-11-26 07:28:00
11:33 PM,24.8,24.8,100,30.29,1.2,NE,5.8,-,N/A,,Clear,40,2012-11-26 07:33:00
11:38 PM,24.8,24.8,100,30.29,0.5,NNE,4.6,-,N/A,Fog,Light Freezing Fog,30,2012-11-26 07:38:00
11:53 PM,23.0,23.0,100,30.29,0.8,NNE,4.6,-,N/A,,Clear,30,2012-11-26 07:53:00
11:58 PM,23.9,23.9,100,30.38,0.8,NNE,4.6,-,N/A,,Clear,30,2012-11-26 07:58:00